CPX797 Details

Departure: Miami International Airport (KMIA)
Arrival: Arturo Merino Benitez International Airport (SCEL)
Route: EONNS2 EONNS A509 URSUS UA301 UCA UG430 SIA UB510 COLBY UM795 ILTUR UM795 BOKAN UM795 LOBOT UM795 KUSKU UM795 PUPMI UM795 JCL UL302 TOY UV208 SIMOK SIMOK2C


Current Weather Information
KMIA 251053Z VRB04KT 10SM SCT030 25/18 A3004 RMK AO2 SLP174 T02500178 $
SCEL 251100Z VRB03KT 8000 BKN150 BKN200 10/M03 Q1010 NOSIG